Bewolking Meer informatie Parkstad Weather Satellite


Neerslagradar Meer informatie Parkstad Rain Snow Radar


Onweersbuien Meer informatie Parkstad Lighntning


24/7 Weercamera Meer informatie Parkstad Weathercam


Natuurbrandrisico
CBI







Het weer levert geen direct gevaar op in Parkstad.    Er zijn geen waarschuwingen afgegeven voor Parkstad (045)

METAR rapporten vliegvelden

   
EHBK - Beek Nederland
Gewijzigd: 02-04-2020 15:25
Bewolking  
Bewolking  
   Wind: Westen 11.1 km/h
Wind: Westen 11.1 km/h
Temperatuur: 9°C
Voelt als: 7°C
Dauwpunt: 0°C
Vochtigheid: 54%
Barometer: 1013 hPa
Satelliet beelden: Bewolking
Zicht: meer dan 10 km
Bewolking: Bewolking 1250 m
EHBK 021325Z AUTO 28006KT 230V350 9999 OVC041 09/M00 Q1013 NOSIG
EHBK - Maastricht Nederland
Gewijzigd: 02-04-2020 15:25
Bewolking  
Bewolking  
   Wind: Westen 11.1 km/h
Wind: Westen 11.1 km/h
Temperatuur: 9°C
Voelt als: 7°C
Dauwpunt: 0°C
Vochtigheid: 54%
Barometer: 1013 hPa
Satelliet beelden: Bewolking
Zicht: meer dan 10 km
Bewolking: Bewolking 1250 m
EHBK 021325Z AUTO 28006KT 230V350 9999 OVC041 09/M00 Q1013 NOSIG
EBLG - Liège België
Gewijzigd: 02-04-2020 15:20
Grotendeels bewolkt  
Grotendeels bewolkt  
   Wind: Westen 9.3 km/h
Wind: Westen 9.3 km/h
Temperatuur: 8°C
Voelt als: 7°C
Dauwpunt: -2°C
Vochtigheid: 50%
Barometer: 1014 hPa
Satelliet beelden: Grotendeels bewolkt
Zicht: meer dan 10 km
Bewolking: Grotendeels bewolkt 1311 m
EBLG 021320Z 26005KT 190V320 9999 BKN043 08/M02 Q1014 NOSIG
EDDK - Köln/Bonn Duitsland
Gewijzigd: 02-04-2020 15:20
Licht bewolkt  
Licht bewolkt  
   Wind: WNW 20.4 km/h
Wind: WNW 20.4 km/h
Temperatuur: 11°C
Dauwpunt: 0°C
Vochtigheid: 47%
Barometer: 1012 hPa
Satelliet beelden: Licht bewolkt
Zicht: meer dan 10 km
Bewolking: Licht bewolkt 1372 m
EDDK 021320Z 29011KT 250V320 9999 FEW045 11/M00 Q1012 NOSIG
EDDL - Düsseldorf Duitsland
Gewijzigd: 02-04-2020 15:20
Grotendeels bewolkt  
Grotendeels bewolkt  
   Wind: Westen 20.4 km/h
Wind: Westen 20.4 km/h
Temperatuur: 11°C
Dauwpunt: 1°C
Vochtigheid: 50%
Barometer: 1013 hPa
Satelliet beelden: Grotendeels bewolkt
Zicht: meer dan 10 km
Bewolking: Licht bewolkt 1219 m,
Grotendeels bewolkt 1433 m
EDDL 021320Z 28011KT 230V330 9999 FEW040 BKN047 11/01 Q1013 NOSIG
EHEH - Eindhoven Nederland
Gewijzigd: 02-04-2020 15:25
Bewolking  
Bewolking  
   Wind: Westen 22.2 km/h
Wind: Westen 22.2 km/h
Temperatuur: 10°C
Voelt als: 7°C
Dauwpunt: 1°C
Vochtigheid: 54%
Barometer: 1013 hPa
Satelliet beelden: Bewolking
Zicht: meer dan 10 km
Bewolking: Bewolking 1128 m
EHEH 021325Z AUTO 26012KT 240V330 9999 OVC037 10/01 Q1013 BLU 26010KT 9999 SCT032 BKN037 TEMPO 26010G20KT
ELLX - Luxemburg Luxemburg
Gewijzigd: 02-04-2020 15:20
Helder  
Helder  
   Wind: Westen 20.4 km/h
Wind: Westen 20.4 km/h
Temperatuur: 12°C
Dauwpunt: -5°C
Vochtigheid: 30%
Barometer: 1012 hPa
Zicht: meer dan 10 km
Bewolking: Helder
ELLX 021320Z 26011KT 220V310 CAVOK 12/M05 Q1012 NOSIG
EGLL - London England
Gewijzigd: 02-04-2020 15:20
Grotendeels bewolkt  
Grotendeels bewolkt  
   Wind: Westen 18.5 km/h
Wind: Westen 18.5 km/h
Temperatuur: 13°C
Dauwpunt: 4°C
Vochtigheid: 55%
Barometer: 1014 hPa
Satelliet beelden: Grotendeels bewolkt
Zicht: meer dan 10 km
Bewolking: Grotendeels bewolkt 1189 m,
Grotendeels bewolkt 1372 m
EGLL 021320Z AUTO 28010KT 9999 BKN039 BKN045 13/04 Q1014 NOSIG
EBAW - Antwerpen België
Gewijzigd: 02-04-2020 15:50
Grotendeels bewolkt  
Grotendeels bewolkt  
   Wind: Westen 16.7 km/h
Wind: Westen 16.7 km/h
Temperatuur: 10°C
Voelt als: 8°C
Dauwpunt: 0°C
Vochtigheid: 50%
Barometer: 1014 hPa
Satelliet beelden: Grotendeels bewolkt
Zicht: meer dan 10 km
Bewolking: Grotendeels bewolkt 1189 m
EBAW 021350Z 26009KT 230V290 9999 BKN039 10/00 Q1014 NOSIG
EBOS - Oostende België
Gewijzigd: 02-04-2020 15:50
Gedeeltelijk bewolkt  
Gedeeltelijk bewolkt  
   Wind: Westen 16.7 km/h
Wind: Westen 16.7 km/h
Temperatuur: 10°C
Voelt als: 8°C
Dauwpunt: 2°C
Vochtigheid: 58%
Barometer: 1014 hPa
Satelliet beelden: Gedeeltelijk bewolkt
Zicht: meer dan 10 km
Bewolking: Licht bewolkt 610 m,
Gedeeltelijk bewolkt 1280 m
EBOS 021350Z 26009KT 230V300 9999 FEW020 SCT042 10/02 Q1014 NOSIG
LEAL - La Nucia Spanje
Gewijzigd: 02-04-2020 15:30
Nabijgelegen onweer, Licht bewolkt  
Nabijgelegen onweer, Licht bewolkt  
   Wind: ONO 11.1 km/h
Wind: ONO 11.1 km/h
Temperatuur: 15°C
Dauwpunt: 10°C
Vochtigheid: 72%
Barometer: 1011 hPa
Satelliet beelden: Licht bewolkt
Zicht: meer dan 10 km
Bewolking: Licht bewolkt 427 m,
Licht bewolkt 610 m
LEAL 021330Z 06006KT 020V100 9999 VCTS FEW014 FEW020CB 15/10 Q1011 TEMPO TSRA
TNCA - Oranjestad Aruba
Gewijzigd: 02-04-2020 15:00
Grotendeels bewolkt  
Grotendeels bewolkt  
   Wind: Oosten 29.6 km/h
Wind: Oosten 29.6 km/h
Temperatuur: 28°C
Gevoelstemperatuur: 31°C
Dauwpunt: 22°C
Vochtigheid: 70%
Barometer: 1014 hPa
Satelliet beelden: Grotendeels bewolkt
Zicht: meer dan 10 km
Bewolking: Grotendeels bewolkt 610 m
TNCA 021300Z 09016KT 9999 BKN020 28/22 Q1014 NOSIG
TNCC - Willemstad Curacao
Gewijzigd: 02-04-2020 15:00
Grotendeels bewolkt  
Grotendeels bewolkt  
   Wind: Oosten 20.4 km/h
Wind: Oosten 20.4 km/h
Temperatuur: 28°C
Gevoelstemperatuur: 31°C
Dauwpunt: 22°C
Vochtigheid: 70%
Barometer: 1014 hPa
Satelliet beelden: Grotendeels bewolkt
Zicht: meer dan 10 km
Bewolking: Grotendeels bewolkt 762 m
TNCC 021300Z AUTO 10011KT 9999 BKN025 28/22 Q1014
MTPP - Port au Prince Haitië
Gewijzigd: 02-04-2020 15:00
Gedeeltelijk bewolkt  
Gedeeltelijk bewolkt  
   Wind: OZO 16.7 km/h
Wind: OZO 16.7 km/h
Temperatuur: 27°C
Gevoelstemperatuur: 29°C
Dauwpunt: 21°C
Vochtigheid: 70%
Barometer: 1014 hPa
Satelliet beelden: Gedeeltelijk bewolkt
Zicht: 9 km
Bewolking: Licht bewolkt 701 m,
Gedeeltelijk bewolkt 1524 m
MTPP 021300Z 11009KT 9000 FEW023 SCT050 27/21 Q1014 A2995 NOSIG
ENVA - Trondheim Noorwegen
Gewijzigd: 02-04-2020 15:50
Grotendeels bewolkt  
Grotendeels bewolkt  
   Wind: Westen 22.2 km/h
Wind: Westen 22.2 km/h
Temperatuur: 3°C
Voelt als: -2°C
Dauwpunt: -4°C
Vochtigheid: 60%
Barometer: 974 hPa
Satelliet beelden: Grotendeels bewolkt
Zicht: meer dan 10 km
Bewolking: Licht bewolkt 1006 m,
Grotendeels bewolkt 1524 m
ENVA 021350Z 27012KT 9999 FEW033 BKN050 03/M04 Q0974 TEMPO 1200 SHSNGS VV010 RMK WIND 670FT VRB10KT
ENBO - Bodø Noorwegen
Gewijzigd: 02-04-2020 15:50
Grotendeels bewolkt  
Grotendeels bewolkt  
   Wind: Oosten 31.5 km/h
Wind: Oosten 31.5 km/h
Temperatuur: 2°C
Voelt als: -4°C
Dauwpunt: -6°C
Vochtigheid: 56%
Barometer: 974 hPa
Satelliet beelden: Grotendeels bewolkt
Zicht: meer dan 10 km
Bewolking: Licht bewolkt 610 m,
Gedeeltelijk bewolkt 1829 m,
Grotendeels bewolkt 6096 m
ENBO 021350Z 08017KT 9999 FEW020 SCT060 BKN200 02/M06 Q0974 NOSIG
ETNG - Geilenkirchen Duitsland
Gewijzigd: 02-04-2020 15:50
Grotendeels bewolkt  
Grotendeels bewolkt  
   Wind: Westen 16.7 km/h
Wind: Westen 16.7 km/h
Temperatuur: 10°C
Voelt als: 8°C
Dauwpunt: 0°C
Vochtigheid: 50%
Barometer: 1013 hPa
Satelliet beelden: Grotendeels bewolkt
Zicht: meer dan 10 km
Bewolking: Licht bewolkt 914 m,
Grotendeels bewolkt 1372 m
ETNG 021350Z 28009KT 9999 FEW030 BKN045 10/M00 Q1013 NOSIG
 

Script ontwikkeld door  Saratoga-weather.org Aangepast voor de template door  Weerstation Leuven

U vindt ons ook hier:

Het Weer Aktueel

WOW Nederland KNMI

Vereniging voor Weerkunde en Klimatologie

UK Met Office Weather Observation Website (WOW)

WeatherCloud

Weather Underground

Awekas

Weatherlink IP

HAMweather, WeatherForYou, PWS Weather

Citizen Weather Observer Program (CWOP)

Apparatuur in gebruik:

Hardwareleverancier
Weerhuisje

Weerstation
Vantage Pro2+ UV

Weercomputer's
alix3d2 & wl330n

Weerprogramma's
Smartbedded

Satelliet NOAA's
WRX137 & KX137

Satelliet Eumetsat
Ayecka SR1 & Triax

Bliksemdetectie
Boltek StormTracker

Webleverancier
F-Service

Weerhuisje

Vantage Pro2+ UV

alix3d2 & wl330n

Smartbedded

WRX137 & KX137

Ayecka SR1 & Triax

Boltek StormTracker

F-Service